createdAt,value
2022-09-21T00:03:25.283Z,23.31
2022-09-21T00:08:32.571Z,23.31
2022-09-21T00:13:42.005Z,23.25
2022-09-21T00:18:45.365Z,23.28
2022-09-21T00:23:49.138Z,23.25
2022-09-21T00:28:54.579Z,23.24
2022-09-21T00:33:58.538Z,23.22
2022-09-21T00:39:02.434Z,23.20
2022-09-21T00:44:31.778Z,23.20
2022-09-21T00:49:36.276Z,23.15
2022-09-21T00:54:45.698Z,23.15
2022-09-21T00:59:52.406Z,23.12
2022-09-21T01:04:56.835Z,23.10
2022-09-21T01:10:06.824Z,23.08
2022-09-21T01:15:32.452Z,23.08
2022-09-21T01:21:06.800Z,23.07
2022-09-21T01:26:19.240Z,23.02
2022-09-21T01:31:25.887Z,22.96
2022-09-21T01:36:31.790Z,22.96
2022-09-21T01:41:36.706Z,22.97
2022-09-21T01:46:40.210Z,22.95
2022-09-21T01:51:50.543Z,22.91
2022-09-21T01:57:07.833Z,22.88
2022-09-21T02:02:18.653Z,22.89
2022-09-21T02:07:22.501Z,22.88
2022-09-21T02:12:25.815Z,22.86
2022-09-21T02:17:34.051Z,22.83
2022-09-21T02:22:51.660Z,22.82
2022-09-21T02:28:07.530Z,22.81
2022-09-21T02:33:23.321Z,22.80
2022-09-21T02:38:44.487Z,22.76
2022-09-21T02:43:56.187Z,22.75
2022-09-21T02:49:06.104Z,22.73
2022-09-21T02:54:14.226Z,22.73
2022-09-21T02:59:17.734Z,22.70
2022-09-21T03:04:20.914Z,22.70
2022-09-21T03:09:24.852Z,22.69
2022-09-21T03:14:28.424Z,22.68
2022-09-21T03:19:31.618Z,22.72
2022-09-21T03:24:35.594Z,22.76
2022-09-21T03:29:39.071Z,22.84
2022-09-21T03:34:42.743Z,22.93
2022-09-21T03:39:46.120Z,22.99
2022-09-21T03:44:49.394Z,22.98
2022-09-21T03:49:52.807Z,22.99
2022-09-21T03:54:56.678Z,23.03
2022-09-21T04:00:00.834Z,23.05
2022-09-21T04:05:13.343Z,23.16
2022-09-21T04:10:19.713Z,23.19
2022-09-21T04:15:23.485Z,23.18
2022-09-21T04:20:27.400Z,23.21
2022-09-21T04:25:31.428Z,23.20
2022-09-21T04:30:37.733Z,23.22
2022-09-21T04:35:41.235Z,23.32
2022-09-21T04:40:44.493Z,23.87
2022-09-21T04:45:47.905Z,24.21
2022-09-21T04:50:51.537Z,24.34
2022-09-21T04:55:56.175Z,24.78
2022-09-21T05:01:00.620Z,26.96
2022-09-21T05:06:04.885Z,29.08
2022-09-21T05:11:11.648Z,29.97
2022-09-21T05:16:19.386Z,29.23
2022-09-21T05:21:23.387Z,28.22
2022-09-21T05:26:26.796Z,27.41
2022-09-21T05:31:38.900Z,26.80
2022-09-21T05:36:50.422Z,26.56
2022-09-21T05:41:53.981Z,26.42
2022-09-21T05:48:02.518Z,26.22
2022-09-21T05:53:30.015Z,26.07
2022-09-21T05:58:33.051Z,25.73
2022-09-21T06:03:37.091Z,24.26
2022-09-21T06:08:42.389Z,23.42
2022-09-21T06:13:49.711Z,23.21
2022-09-21T06:18:53.459Z,23.26
2022-09-21T06:23:56.703Z,23.42
2022-09-21T06:29:00.228Z,23.61
2022-09-21T06:34:04.052Z,23.77
2022-09-21T06:39:07.534Z,23.91
2022-09-21T06:44:11.376Z,24.09
2022-09-21T06:49:15.092Z,24.23
2022-09-21T06:54:18.442Z,24.33
2022-09-21T06:59:21.697Z,24.39
2022-09-21T07:04:25.330Z,24.58
2022-09-21T07:14:52.679Z,25.15
2022-09-21T07:19:56.386Z,25.40
2022-09-21T07:25:00.200Z,25.86
2022-09-21T07:30:04.449Z,26.13
2022-09-21T07:35:07.936Z,26.19
2022-09-21T07:40:11.502Z,26.25
2022-09-21T07:45:15.205Z,26.34
2022-09-21T07:50:18.611Z,26.54
2022-09-21T07:55:22.225Z,26.73
2022-09-21T08:00:28.831Z,27.01
2022-09-21T08:05:34.697Z,27.31
2022-09-21T08:10:38.467Z,27.67
2022-09-21T08:15:49.817Z,27.80
2022-09-21T08:20:55.771Z,27.86
2022-09-21T08:26:00.979Z,27.69
2022-09-21T08:31:07.388Z,27.47
2022-09-21T08:36:12.074Z,27.29
2022-09-21T08:41:23.903Z,27.30
2022-09-21T08:46:31.035Z,27.19
2022-09-21T08:51:38.686Z,27.10
2022-09-21T08:57:03.992Z,27.07
2022-09-21T09:02:24.156Z,27.04
2022-09-21T09:07:50.315Z,27.14
2022-09-21T09:13:14.880Z,27.27
2022-09-21T09:18:29.490Z,27.39
2022-09-21T09:23:46.983Z,27.41
2022-09-21T09:29:03.051Z,27.32
2022-09-21T09:34:34.419Z,27.32
2022-09-21T09:39:38.902Z,27.43
2022-09-21T09:44:57.187Z,27.45
2022-09-21T09:50:06.464Z,27.47
2022-09-21T09:55:23.910Z,27.37
2022-09-21T10:00:28.092Z,27.26
2022-09-21T10:05:37.639Z,27.20
2022-09-21T10:10:43.927Z,27.14
2022-09-21T10:15:57.146Z,27.12
2022-09-21T10:21:28.706Z,27.24
2022-09-21T10:26:44.532Z,27.19
2022-09-21T10:32:03.359Z,27.04
2022-09-21T10:37:29.479Z,26.98
2022-09-21T10:42:42.198Z,26.91
2022-09-21T10:47:58.169Z,26.98
2022-09-21T10:53:32.389Z,27.00
2022-09-21T10:58:36.511Z,26.97
2022-09-21T11:03:58.197Z,27.07
2022-09-21T11:09:08.905Z,27.15
2022-09-21T11:14:50.211Z,27.10
2022-09-21T11:20:21.750Z,27.17
2022-09-21T11:25:36.567Z,27.24
2022-09-21T11:31:07.444Z,27.30
2022-09-21T11:36:34.115Z,27.29
2022-09-21T11:41:41.534Z,27.30
2022-09-21T11:46:59.387Z,27.41
2022-09-21T11:52:21.321Z,27.33
2022-09-21T11:57:35.302Z,27.15
2022-09-21T12:03:26.024Z,27.24
2022-09-21T12:09:03.347Z,27.23
2022-09-21T12:14:43.898Z,27.20
2022-09-21T12:20:00.370Z,27.08
2022-09-21T12:25:26.357Z,27.03
2022-09-21T12:30:32.284Z,27.01
2022-09-21T12:35:43.326Z,27.07
2022-09-21T12:41:18.236Z,26.98
2022-09-21T12:46:26.363Z,26.86
2022-09-21T12:51:41.960Z,26.83
2022-09-21T12:56:54.014Z,26.85
2022-09-21T13:02:15.265Z,26.67
2022-09-21T13:07:36.919Z,26.56
2022-09-21T13:12:44.755Z,26.53
2022-09-21T13:17:59.768Z,26.53
2022-09-21T13:23:05.025Z,26.51
2022-09-21T13:28:17.197Z,26.48
2022-09-21T13:33:20.555Z,26.39
2022-09-21T13:38:54.634Z,26.24
2022-09-21T13:44:01.066Z,26.09
2022-09-21T13:49:11.029Z,26.11
2022-09-21T13:54:14.826Z,26.11
2022-09-21T13:59:25.873Z,26.12
2022-09-21T14:04:33.735Z,26.11
2022-09-21T14:09:51.088Z,26.00
2022-09-21T14:15:18.909Z,25.89
2022-09-21T14:20:33.604Z,25.76
2022-09-21T14:25:52.098Z,25.77
2022-09-21T14:31:01.533Z,25.72
2022-09-21T14:36:09.851Z,25.60
2022-09-21T14:41:17.897Z,25.42
2022-09-21T14:46:45.940Z,25.26
2022-09-21T14:52:12.557Z,25.28
2022-09-21T14:57:42.686Z,25.23
2022-09-21T15:02:47.590Z,25.14
2022-09-21T15:08:29.456Z,25.10
2022-09-21T15:13:48.281Z,24.95
2022-09-21T15:19:02.314Z,24.83
2022-09-21T15:24:21.231Z,24.70
2022-09-21T15:29:30.991Z,24.63
2022-09-21T15:34:34.765Z,24.58
2022-09-21T15:39:38.099Z,24.55
2022-09-21T15:44:41.421Z,24.52
2022-09-21T15:49:44.724Z,24.45
2022-09-21T15:55:26.320Z,24.35
2022-09-21T16:00:31.587Z,24.27
2022-09-21T16:05:53.973Z,24.22
2022-09-21T16:11:26.960Z,24.19
2022-09-21T16:16:30.370Z,24.15
2022-09-21T16:21:37.369Z,24.13
2022-09-21T16:26:56.783Z,24.13
2022-09-21T16:32:18.269Z,24.11
2022-09-21T16:37:27.445Z,24.14
2022-09-21T16:42:30.881Z,24.22
2022-09-21T16:47:38.022Z,24.26
2022-09-21T16:52:41.732Z,24.27
2022-09-21T16:57:45.617Z,24.25
2022-09-21T17:02:49.617Z,24.20
2022-09-21T17:07:55.629Z,24.15
2022-09-21T17:12:58.987Z,24.11
2022-09-21T17:18:03.538Z,24.06
2022-09-21T17:23:06.671Z,24.06
2022-09-21T17:28:15.464Z,24.05
2022-09-21T17:33:18.886Z,24.06
2022-09-21T17:38:22.062Z,24.09
2022-09-21T17:43:40.058Z,24.11
2022-09-21T17:48:43.487Z,24.10
2022-09-21T17:53:47.500Z,24.07
2022-09-21T17:59:03.717Z,24.07
2022-09-21T18:04:08.510Z,24.09
2022-09-21T18:09:12.147Z,24.04
2022-09-21T18:14:24.576Z,24.01
2022-09-21T18:19:30.522Z,23.95
2022-09-21T18:24:34.147Z,23.91
2022-09-21T18:29:40.468Z,23.89
2022-09-21T18:34:47.458Z,23.89
2022-09-21T18:40:32.922Z,23.91
2022-09-21T18:45:44.160Z,23.87
2022-09-21T18:51:10.841Z,23.84
2022-09-21T18:56:15.612Z,23.82
2022-09-21T19:01:19.813Z,23.81
2022-09-21T19:06:32.459Z,23.81
2022-09-21T19:11:57.119Z,23.79
2022-09-21T19:17:16.699Z,23.78
2022-09-21T19:22:53.480Z,23.74
2022-09-21T19:28:10.700Z,23.70
2022-09-21T19:33:55.918Z,23.68
2022-09-21T19:38:59.437Z,23.66
2022-09-21T19:44:35.183Z,23.70
2022-09-21T19:49:53.023Z,23.76
2022-09-21T19:54:57.027Z,23.83
2022-09-21T20:00:01.041Z,23.87
2022-09-21T20:05:15.215Z,23.89
2022-09-21T20:10:21.496Z,23.88
2022-09-21T20:15:34.143Z,23.87
2022-09-21T20:20:37.575Z,23.87
2022-09-21T20:25:56.370Z,23.84
2022-09-21T20:31:00.163Z,23.79
2022-09-21T20:36:03.469Z,23.76
2022-09-21T20:41:16.701Z,23.71
2022-09-21T20:46:24.302Z,23.67
2022-09-21T20:51:27.883Z,23.60
2022-09-21T20:56:31.667Z,23.61
2022-09-21T21:01:35.211Z,23.60
2022-09-21T21:06:39.159Z,23.59
2022-09-21T21:11:43.072Z,23.58
2022-09-21T21:16:47.253Z,23.60
2022-09-21T21:21:50.814Z,23.66
2022-09-21T21:27:03.086Z,23.64
2022-09-21T21:32:07.028Z,23.62
2022-09-21T21:37:11.760Z,23.57
2022-09-21T21:42:17.609Z,23.55
2022-09-21T21:47:38.768Z,23.53
2022-09-21T21:52:42.826Z,23.55
2022-09-21T21:57:46.246Z,23.55
2022-09-21T22:02:49.673Z,23.58
2022-09-21T22:07:52.695Z,23.61
2022-09-21T22:12:56.074Z,23.62
2022-09-21T22:17:59.513Z,23.59
2022-09-21T22:23:02.689Z,23.61
2022-09-21T22:28:06.890Z,23.64
2022-09-21T22:33:10.304Z,23.62
2022-09-21T22:38:14.250Z,23.57
2022-09-21T22:43:17.890Z,23.61
2022-09-21T22:48:23.483Z,23.62
2022-09-21T22:53:29.857Z,23.61
2022-09-21T22:58:35.444Z,23.64
2022-09-21T23:03:40.841Z,23.60
2022-09-21T23:08:48.603Z,23.53
2022-09-21T23:13:52.354Z,23.46
2022-09-21T23:18:58.319Z,23.38
2022-09-21T23:24:04.091Z,23.29
2022-09-21T23:29:12.126Z,23.26
2022-09-21T23:34:19.123Z,23.27
2022-09-21T23:39:22.641Z,23.29
2022-09-21T23:44:26.238Z,23.33
2022-09-21T23:49:29.394Z,23.32
2022-09-21T23:54:32.787Z,23.29
2022-09-21T23:59:36.071Z,23.27
